sensor_id;sensor_type;location;lat;lon;timestamp;P1;durP1;ratioP1;P2;durP2;ratioP2
42598;SDS011;28225;42.714;23.860;2023-08-06T00:00:07;4.20;;;3.80;;
42598;SDS011;28225;42.714;23.860;2023-08-06T00:00:23;4.30;;;3.90;;
42598;SDS011;28225;42.714;23.860;2023-08-06T00:00:39;4.28;;;3.67;;
42598;SDS011;28225;42.714;23.860;2023-08-06T00:00:54;4.47;;;3.77;;
42598;SDS011;28225;42.714;23.860;2023-08-06T00:01:09;4.13;;;3.70;;
42598;SDS011;28225;42.714;23.860;2023-08-06T00:01:25;9.57;;;3.90;;
42598;SDS011;28225;42.714;23.860;2023-08-06T00:01:40;15.03;;;4.53;;
42598;SDS011;28225;42.714;23.860;2023-08-06T00:01:55;13.37;;;4.73;;
42598;SDS011;28225;42.714;23.860;2023-08-06T00:02:11;11.73;;;4.72;;
42598;SDS011;28225;42.714;23.860;2023-08-06T00:02:26;7.60;;;4.20;;
42598;SDS011;28225;42.714;23.860;2023-08-06T00:02:42;4.40;;;3.87;;
42598;SDS011;28225;42.714;23.860;2023-08-06T00:02:57;4.68;;;4.28;;
42598;SDS011;28225;42.714;23.860;2023-08-06T00:03:12;4.80;;;4.30;;
42598;SDS011;28225;42.714;23.860;2023-08-06T00:03:28;5.07;;;4.17;;
42598;SDS011;28225;42.714;23.860;2023-08-06T00:03:43;4.82;;;4.38;;
42598;SDS011;28225;42.714;23.860;2023-08-06T00:03:58;5.10;;;4.70;;
42598;SDS011;28225;42.714;23.860;2023-08-06T00:04:15;4.72;;;4.43;;
42598;SDS011;28225;42.714;23.860;2023-08-06T00:04:30;5.13;;;4.72;;
42598;SDS011;28225;42.714;23.860;2023-08-06T00:04:45;6.47;;;5.73;;
42598;SDS011;28225;42.714;23.860;2023-08-06T00:05:01;6.23;;;5.63;;
42598;SDS011;28225;42.714;23.860;2023-08-06T00:05:17;5.85;;;5.45;;
42598;SDS011;28225;42.714;23.860;2023-08-06T00:05:33;5.97;;;5.57;;
42598;SDS011;28225;42.714;23.860;2023-08-06T00:05:48;5.97;;;5.57;;
42598;SDS011;28225;42.714;23.860;2023-08-06T00:06:06;5.77;;;5.37;;
42598;SDS011;28225;42.714;23.860;2023-08-06T00:06:22;5.80;;;5.30;;
42598;SDS011;28225;42.714;23.860;2023-08-06T00:06:37;6.83;;;6.33;;
42598;SDS011;28225;42.714;23.860;2023-08-06T00:06:52;6.53;;;6.03;;
42598;SDS011;28225;42.714;23.860;2023-08-06T00:07:08;5.37;;;4.93;;
42598;SDS011;28225;42.714;23.860;2023-08-06T00:07:23;10.07;;;6.57;;
42598;SDS011;28225;42.714;23.860;2023-08-06T00:07:38;11.82;;;8.10;;
42598;SDS011;28225;42.714;23.860;2023-08-06T00:07:54;13.07;;;8.13;;
42598;SDS011;28225;42.714;23.860;2023-08-06T00:08:09;17.63;;;8.07;;
42598;SDS011;28225;42.714;23.860;2023-08-06T00:08:25;19.50;;;7.37;;
42598;SDS011;28225;42.714;23.860;2023-08-06T00:08:40;17.38;;;6.40;;
42598;SDS011;28225;42.714;23.860;2023-08-06T00:08:55;9.90;;;6.17;;
42598;SDS011;28225;42.714;23.860;2023-08-06T00:09:11;6.27;;;5.70;;
42598;SDS011;28225;42.714;23.860;2023-08-06T00:09:26;6.20;;;5.63;;
42598;SDS011;28225;42.714;23.860;2023-08-06T00:09:41;16.17;;;5.97;;
42598;SDS011;28225;42.714;23.860;2023-08-06T00:09:57;19.40;;;7.10;;
42598;SDS011;28225;42.714;23.860;2023-08-06T00:10:12;11.40;;;6.97;;
42598;SDS011;28225;42.714;23.860;2023-08-06T00:10:28;9.03;;;6.33;;
42598;SDS011;28225;42.714;23.860;2023-08-06T00:10:43;7.53;;;6.27;;
42598;SDS011;28225;42.714;23.860;2023-08-06T00:10:58;7.88;;;6.13;;
42598;SDS011;28225;42.714;23.860;2023-08-06T00:11:14;7.30;;;6.20;;
42598;SDS011;28225;42.714;23.860;2023-08-06T00:11:29;6.67;;;6.20;;
42598;SDS011;28225;42.714;23.860;2023-08-06T00:11:44;6.22;;;5.82;;
42598;SDS011;28225;42.714;23.860;2023-08-06T00:12:01;6.85;;;5.63;;
42598;SDS011;28225;42.714;23.860;2023-08-06T00:12:17;6.87;;;5.37;;
42598;SDS011;28225;42.714;23.860;2023-08-06T00:12:32;5.00;;;4.60;;
42598;SDS011;28225;42.714;23.860;2023-08-06T00:12:47;5.32;;;4.88;;
42598;SDS011;28225;42.714;23.860;2023-08-06T00:13:03;6.23;;;5.67;;
42598;SDS011;28225;42.714;23.860;2023-08-06T00:13:19;6.25;;;5.60;;
42598;SDS011;28225;42.714;23.860;2023-08-06T00:13:34;5.33;;;4.83;;
42598;SDS011;28225;42.714;23.860;2023-08-06T00:13:49;8.97;;;4.70;;
42598;SDS011;28225;42.714;23.860;2023-08-06T00:14:05;9.38;;;4.20;;
42598;SDS011;28225;42.714;23.860;2023-08-06T00:14:20;5.30;;;3.60;;
42598;SDS011;28225;42.714;23.860;2023-08-06T00:14:35;6.97;;;3.77;;
42598;SDS011;28225;42.714;23.860;2023-08-06T00:14:51;8.98;;;4.05;;
42598;SDS011;28225;42.714;23.860;2023-08-06T00:15:07;7.15;;;3.30;;
42598;SDS011;28225;42.714;23.860;2023-08-06T00:15:23;5.38;;;2.75;;
42598;SDS011;28225;42.714;23.860;2023-08-06T00:15:38;6.80;;;2.90;;
42598;SDS011;28225;42.714;23.860;2023-08-06T00:15:54;6.47;;;3.17;;
42598;SDS011;28225;42.714;23.860;2023-08-06T00:16:10;6.10;;;2.90;;
42598;SDS011;28225;42.714;23.860;2023-08-06T00:16:28;5.85;;;2.70;;
42598;SDS011;28225;42.714;23.860;2023-08-06T00:16:44;4.50;;;2.73;;
42598;SDS011;28225;42.714;23.860;2023-08-06T00:17:00;7.55;;;2.78;;
42598;SDS011;28225;42.714;23.860;2023-08-06T00:17:15;8.47;;;2.80;;
42598;SDS011;28225;42.714;23.860;2023-08-06T00:17:30;4.88;;;2.88;;
42598;SDS011;28225;42.714;23.860;2023-08-06T00:17:46;3.90;;;2.90;;
42598;SDS011;28225;42.714;23.860;2023-08-06T00:18:01;4.73;;;3.07;;
42598;SDS011;28225;42.714;23.860;2023-08-06T00:18:16;6.32;;;3.00;;
42598;SDS011;28225;42.714;23.860;2023-08-06T00:18:32;6.27;;;2.77;;
42598;SDS011;28225;42.714;23.860;2023-08-06T00:18:47;6.50;;;2.80;;
42598;SDS011;28225;42.714;23.860;2023-08-06T00:19:02;6.20;;;2.97;;
42598;SDS011;28225;42.714;23.860;2023-08-06T00:19:18;5.60;;;3.10;;
42598;SDS011;28225;42.714;23.860;2023-08-06T00:19:33;6.00;;;3.00;;
42598;SDS011;28225;42.714;23.860;2023-08-06T00:19:48;4.90;;;2.87;;
42598;SDS011;28225;42.714;23.860;2023-08-06T00:20:04;3.53;;;2.88;;
42598;SDS011;28225;42.714;23.860;2023-08-06T00:20:21;3.50;;;2.90;;
42598;SDS011;28225;42.714;23.860;2023-08-06T00:20:38;3.93;;;2.93;;
42598;SDS011;28225;42.714;23.860;2023-08-06T00:20:54;5.50;;;3.00;;
42598;SDS011;28225;42.714;23.860;2023-08-06T00:21:09;3.90;;;2.70;;
42598;SDS011;28225;42.714;23.860;2023-08-06T00:21:27;3.33;;;2.47;;
42598;SDS011;28225;42.714;23.860;2023-08-06T00:21:42;4.10;;;2.67;;
42598;SDS011;28225;42.714;23.860;2023-08-06T00:21:58;5.20;;;2.83;;
42598;SDS011;28225;42.714;23.860;2023-08-06T00:22:13;5.03;;;2.63;;
42598;SDS011;28225;42.714;23.860;2023-08-06T00:22:28;5.07;;;2.80;;
42598;SDS011;28225;42.714;23.860;2023-08-06T00:22:44;5.20;;;3.10;;
42598;SDS011;28225;42.714;23.860;2023-08-06T00:22:59;4.90;;;3.20;;
42598;SDS011;28225;42.714;23.860;2023-08-06T00:23:14;4.47;;;2.95;;
42598;SDS011;28225;42.714;23.860;2023-08-06T00:23:30;4.67;;;2.90;;
42598;SDS011;28225;42.714;23.860;2023-08-06T00:23:45;5.33;;;3.07;;
42598;SDS011;28225;42.714;23.860;2023-08-06T00:24:00;7.20;;;3.10;;
42598;SDS011;28225;42.714;23.860;2023-08-06T00:24:16;6.83;;;3.10;;
42598;SDS011;28225;42.714;23.860;2023-08-06T00:24:31;4.80;;;3.10;;
42598;SDS011;28225;42.714;23.860;2023-08-06T00:24:46;4.73;;;3.37;;
42598;SDS011;28225;42.714;23.860;2023-08-06T00:25:02;5.55;;;3.42;;
42598;SDS011;28225;42.714;23.860;2023-08-06T00:25:18;5.72;;;3.30;;
42598;SDS011;28225;42.714;23.860;2023-08-06T00:25:34;6.60;;;3.17;;
42598;SDS011;28225;42.714;23.860;2023-08-06T00:25:50;7.57;;;3.40;;
42598;SDS011;28225;42.714;23.860;2023-08-06T00:26:05;6.17;;;3.40;;
42598;SDS011;28225;42.714;23.860;2023-08-06T00:26:20;4.43;;;3.30;;
42598;SDS011;28225;42.714;23.860;2023-08-06T00:26:36;4.17;;;3.47;;
42598;SDS011;28225;42.714;23.860;2023-08-06T00:26:51;5.97;;;3.58;;
42598;SDS011;28225;42.714;23.860;2023-08-06T00:27:06;6.63;;;3.47;;
42598;SDS011;28225;42.714;23.860;2023-08-06T00:27:22;5.60;;;3.20;;
42598;SDS011;28225;42.714;23.860;2023-08-06T00:27:37;7.20;;;3.22;;
42598;SDS011;28225;42.714;23.860;2023-08-06T00:27:53;7.28;;;3.28;;
42598;SDS011;28225;42.714;23.860;2023-08-06T00:28:09;7.07;;;3.20;;
42598;SDS011;28225;42.714;23.860;2023-08-06T00:28:24;6.20;;;3.13;;
42598;SDS011;28225;42.714;23.860;2023-08-06T00:28:40;5.67;;;3.20;;
42598;SDS011;28225;42.714;23.860;2023-08-06T00:28:55;5.63;;;3.20;;
42598;SDS011;28225;42.714;23.860;2023-08-06T00:29:10;3.97;;;2.92;;
42598;SDS011;28225;42.714;23.860;2023-08-06T00:29:26;4.77;;;3.37;;
42598;SDS011;28225;42.714;23.860;2023-08-06T00:29:41;6.00;;;3.37;;
42598;SDS011;28225;42.714;23.860;2023-08-06T00:29:56;5.03;;;3.03;;
42598;SDS011;28225;42.714;23.860;2023-08-06T00:30:12;5.80;;;3.30;;
42598;SDS011;28225;42.714;23.860;2023-08-06T00:30:27;5.10;;;3.27;;
42598;SDS011;28225;42.714;23.860;2023-08-06T00:30:42;3.80;;;3.00;;
42598;SDS011;28225;42.714;23.860;2023-08-06T00:30:58;4.03;;;3.00;;
42598;SDS011;28225;42.714;23.860;2023-08-06T00:31:13;4.80;;;3.00;;
42598;SDS011;28225;42.714;23.860;2023-08-06T00:31:28;5.20;;;2.80;;
42598;SDS011;28225;42.714;23.860;2023-08-06T00:31:44;5.47;;;2.97;;
42598;SDS011;28225;42.714;23.860;2023-08-06T00:31:59;6.10;;;3.17;;
42598;SDS011;28225;42.714;23.860;2023-08-06T00:32:14;6.40;;;3.43;;
42598;SDS011;28225;42.714;23.860;2023-08-06T00:32:30;5.57;;;3.47;;
42598;SDS011;28225;42.714;23.860;2023-08-06T00:32:45;4.17;;;3.33;;
42598;SDS011;28225;42.714;23.860;2023-08-06T00:33:00;5.53;;;3.63;;
42598;SDS011;28225;42.714;23.860;2023-08-06T00:33:16;5.50;;;3.28;;
42598;SDS011;28225;42.714;23.860;2023-08-06T00:33:31;4.00;;;3.00;;
42598;SDS011;28225;42.714;23.860;2023-08-06T00:33:46;4.50;;;2.93;;
42598;SDS011;28225;42.714;23.860;2023-08-06T00:34:02;4.17;;;2.80;;
42598;SDS011;28225;42.714;23.860;2023-08-06T00:34:17;4.82;;;2.92;;
42598;SDS011;28225;42.714;23.860;2023-08-06T00:34:33;5.30;;;2.90;;
42598;SDS011;28225;42.714;23.860;2023-08-06T00:34:48;4.60;;;3.20;;
42598;SDS011;28225;42.714;23.860;2023-08-06T00:35:06;4.88;;;2.97;;
42598;SDS011;28225;42.714;23.860;2023-08-06T00:35:22;4.67;;;2.70;;
42598;SDS011;28225;42.714;23.860;2023-08-06T00:35:37;3.95;;;2.60;;
42598;SDS011;28225;42.714;23.860;2023-08-06T00:35:53;6.03;;;2.80;;
42598;SDS011;28225;42.714;23.860;2023-08-06T00:36:08;5.87;;;2.80;;
42598;SDS011;28225;42.714;23.860;2023-08-06T00:36:23;4.72;;;3.00;;
42598;SDS011;28225;42.714;23.860;2023-08-06T00:36:39;5.27;;;3.10;;
42598;SDS011;28225;42.714;23.860;2023-08-06T00:36:55;5.32;;;3.00;;
42598;SDS011;28225;42.714;23.860;2023-08-06T00:37:10;5.17;;;3.33;;
42598;SDS011;28225;42.714;23.860;2023-08-06T00:37:26;5.15;;;3.35;;
42598;SDS011;28225;42.714;23.860;2023-08-06T00:37:41;5.07;;;3.30;;
42598;SDS011;28225;42.714;23.860;2023-08-06T00:37:56;3.33;;;2.87;;
42598;SDS011;28225;42.714;23.860;2023-08-06T00:38:12;3.10;;;2.63;;
42598;SDS011;28225;42.714;23.860;2023-08-06T00:38:27;3.87;;;2.70;;
42598;SDS011;28225;42.714;23.860;2023-08-06T00:38:43;4.13;;;2.80;;
42598;SDS011;28225;42.714;23.860;2023-08-06T00:38:58;4.63;;;2.88;;
42598;SDS011;28225;42.714;23.860;2023-08-06T00:39:13;4.87;;;3.17;;
42598;SDS011;28225;42.714;23.860;2023-08-06T00:39:29;4.00;;;3.20;;
42598;SDS011;28225;42.714;23.860;2023-08-06T00:39:44;3.63;;;3.03;;
42598;SDS011;28225;42.714;23.860;2023-08-06T00:39:59;4.50;;;3.03;;
42598;SDS011;28225;42.714;23.860;2023-08-06T00:40:15;4.87;;;3.33;;
42598;SDS011;28225;42.714;23.860;2023-08-06T00:40:30;4.93;;;3.03;;
42598;SDS011;28225;42.714;23.860;2023-08-06T00:40:46;3.60;;;2.40;;
42598;SDS011;28225;42.714;23.860;2023-08-06T00:41:01;3.10;;;2.60;;
42598;SDS011;28225;42.714;23.860;2023-08-06T00:41:16;3.70;;;2.85;;
42598;SDS011;28225;42.714;23.860;2023-08-06T00:41:32;3.70;;;2.97;;
42598;SDS011;28225;42.714;23.860;2023-08-06T00:41:47;3.78;;;2.90;;
42598;SDS011;28225;42.714;23.860;2023-08-06T00:42:03;4.20;;;2.93;;
42598;SDS011;28225;42.714;23.860;2023-08-06T00:42:18;5.75;;;3.22;;
42598;SDS011;28225;42.714;23.860;2023-08-06T00:42:35;6.30;;;3.38;;
42598;SDS011;28225;42.714;23.860;2023-08-06T00:42:51;4.07;;;2.85;;
42598;SDS011;28225;42.714;23.860;2023-08-06T00:43:06;3.07;;;2.60;;
42598;SDS011;28225;42.714;23.860;2023-08-06T00:43:22;3.20;;;2.90;;
42598;SDS011;28225;42.714;23.860;2023-08-06T00:43:37;3.07;;;2.77;;
42598;SDS011;28225;42.714;23.860;2023-08-06T00:43:52;3.03;;;2.73;;
42598;SDS011;28225;42.714;23.860;2023-08-06T00:44:08;3.92;;;2.78;;
42598;SDS011;28225;42.714;23.860;2023-08-06T00:44:23;4.63;;;2.77;;
42598;SDS011;28225;42.714;23.860;2023-08-06T00:44:39;3.90;;;2.90;;
42598;SDS011;28225;42.714;23.860;2023-08-06T00:44:54;4.65;;;3.20;;
42598;SDS011;28225;42.714;23.860;2023-08-06T00:45:10;4.50;;;3.17;;
42598;SDS011;28225;42.714;23.860;2023-08-06T00:45:25;3.75;;;3.05;;
42598;SDS011;28225;42.714;23.860;2023-08-06T00:45:41;3.93;;;3.00;;
42598;SDS011;28225;42.714;23.860;2023-08-06T00:45:56;4.25;;;3.10;;
42598;SDS011;28225;42.714;23.860;2023-08-06T00:46:12;4.87;;;2.77;;
42598;SDS011;28225;42.714;23.860;2023-08-06T00:46:27;4.13;;;2.47;;
42598;SDS011;28225;42.714;23.860;2023-08-06T00:46:42;3.67;;;2.90;;
42598;SDS011;28225;42.714;23.860;2023-08-06T00:46:58;3.50;;;3.10;;
42598;SDS011;28225;42.714;23.860;2023-08-06T00:47:13;3.08;;;2.75;;
42598;SDS011;28225;42.714;23.860;2023-08-06T00:47:29;3.63;;;3.10;;
42598;SDS011;28225;42.714;23.860;2023-08-06T00:47:44;4.18;;;3.22;;
42598;SDS011;28225;42.714;23.860;2023-08-06T00:48:01;5.32;;;3.20;;
42598;SDS011;28225;42.714;23.860;2023-08-06T00:48:17;5.20;;;3.10;;
42598;SDS011;28225;42.714;23.860;2023-08-06T00:48:32;3.80;;;3.10;;
42598;SDS011;28225;42.714;23.860;2023-08-06T00:48:48;3.58;;;3.15;;
42598;SDS011;28225;42.714;23.860;2023-08-06T00:49:05;2.80;;;2.60;;
42598;SDS011;28225;42.714;23.860;2023-08-06T00:49:20;3.17;;;2.77;;
42598;SDS011;28225;42.714;23.860;2023-08-06T00:49:36;3.53;;;2.97;;
42598;SDS011;28225;42.714;23.860;2023-08-06T00:49:51;3.77;;;2.97;;
42598;SDS011;28225;42.714;23.860;2023-08-06T00:50:07;4.50;;;3.13;;
42598;SDS011;28225;42.714;23.860;2023-08-06T00:50:23;3.38;;;3.00;;
42598;SDS011;28225;42.714;23.860;2023-08-06T00:50:39;3.20;;;2.80;;
42598;SDS011;28225;42.714;23.860;2023-08-06T00:50:54;3.63;;;2.83;;
42598;SDS011;28225;42.714;23.860;2023-08-06T00:51:10;5.67;;;3.00;;
42598;SDS011;28225;42.714;23.860;2023-08-06T00:51:26;7.57;;;3.38;;
42598;SDS011;28225;42.714;23.860;2023-08-06T00:51:42;5.83;;;3.40;;
42598;SDS011;28225;42.714;23.860;2023-08-06T00:51:57;3.60;;;2.97;;
42598;SDS011;28225;42.714;23.860;2023-08-06T00:52:13;3.42;;;2.78;;
42598;SDS011;28225;42.714;23.860;2023-08-06T00:52:29;3.17;;;2.80;;
42598;SDS011;28225;42.714;23.860;2023-08-06T00:52:44;3.45;;;2.88;;
42598;SDS011;28225;42.714;23.860;2023-08-06T00:52:59;4.27;;;3.00;;
42598;SDS011;28225;42.714;23.860;2023-08-06T00:53:15;4.40;;;3.10;;
42598;SDS011;28225;42.714;23.860;2023-08-06T00:53:30;3.67;;;2.97;;
42598;SDS011;28225;42.714;23.860;2023-08-06T00:53:46;3.53;;;2.70;;
42598;SDS011;28225;42.714;23.860;2023-08-06T00:54:02;3.80;;;2.90;;
42598;SDS011;28225;42.714;23.860;2023-08-06T00:54:17;3.45;;;2.95;;
42598;SDS011;28225;42.714;23.860;2023-08-06T00:54:33;3.87;;;2.80;;
42598;SDS011;28225;42.714;23.860;2023-08-06T00:54:48;4.17;;;2.87;;
42598;SDS011;28225;42.714;23.860;2023-08-06T00:55:04;3.13;;;2.78;;
42598;SDS011;28225;42.714;23.860;2023-08-06T00:55:19;3.67;;;2.80;;
42598;SDS011;28225;42.714;23.860;2023-08-06T00:55:35;5.07;;;3.00;;
42598;SDS011;28225;42.714;23.860;2023-08-06T00:55:50;4.40;;;2.80;;
42598;SDS011;28225;42.714;23.860;2023-08-06T00:56:06;4.75;;;2.65;;
42598;SDS011;28225;42.714;23.860;2023-08-06T00:56:22;4.90;;;2.97;;
42598;SDS011;28225;42.714;23.860;2023-08-06T00:56:39;3.85;;;2.75;;
42598;SDS011;28225;42.714;23.860;2023-08-06T00:56:57;5.10;;;3.33;;
42598;SDS011;28225;42.714;23.860;2023-08-06T00:57:12;6.80;;;4.07;;
42598;SDS011;28225;42.714;23.860;2023-08-06T00:57:28;6.65;;;3.92;;
42598;SDS011;28225;42.714;23.860;2023-08-06T00:57:43;5.03;;;3.43;;
42598;SDS011;28225;42.714;23.860;2023-08-06T00:57:59;5.75;;;3.42;;
42598;SDS011;28225;42.714;23.860;2023-08-06T00:58:14;6.47;;;3.77;;
42598;SDS011;28225;42.714;23.860;2023-08-06T00:58:30;5.07;;;3.70;;
42598;SDS011;28225;42.714;23.860;2023-08-06T00:58:46;5.37;;;3.53;;
42598;SDS011;28225;42.714;23.860;2023-08-06T00:59:01;7.15;;;3.63;;
42598;SDS011;28225;42.714;23.860;2023-08-06T00:59:17;9.57;;;3.40;;
42598;SDS011;28225;42.714;23.860;2023-08-06T00:59:32;7.53;;;3.30;;
42598;SDS011;28225;42.714;23.860;2023-08-06T00:59:48;6.30;;;3.50;;
42598;SDS011;28225;42.714;23.860;2023-08-06T01:00:03;6.65;;;3.33;;
42598;SDS011;28225;42.714;23.860;2023-08-06T01:00:19;7.07;;;3.47;;
42598;SDS011;28225;42.714;23.860;2023-08-06T01:00:36;6.20;;;3.45;;
42598;SDS011;28225;42.714;23.860;2023-08-06T01:00:51;3.95;;;3.20;;
42598;SDS011;28225;42.714;23.860;2023-08-06T01:01:07;3.57;;;3.17;;
42598;SDS011;28225;42.714;23.860;2023-08-06T01:01:22;4.25;;;3.13;;
42598;SDS011;28225;42.714;23.860;2023-08-06T01:01:38;5.43;;;3.20;;
42598;SDS011;28225;42.714;23.860;2023-08-06T01:01:53;6.65;;;3.28;;
42598;SDS011;28225;42.714;23.860;2023-08-06T01:02:09;5.23;;;3.30;;
42598;SDS011;28225;42.714;23.860;2023-08-06T01:02:24;4.13;;;3.40;;
42598;SDS011;28225;42.714;23.860;2023-08-06T01:02:40;5.10;;;3.35;;
42598;SDS011;28225;42.714;23.860;2023-08-06T01:02:55;4.43;;;3.10;;
42598;SDS011;28225;42.714;23.860;2023-08-06T01:03:11;3.88;;;3.45;;
42598;SDS011;28225;42.714;23.860;2023-08-06T01:03:27;5.50;;;3.90;;
42598;SDS011;28225;42.714;23.860;2023-08-06T01:03:42;5.50;;;3.50;;
42598;SDS011;28225;42.714;23.860;2023-08-06T01:03:57;4.83;;;3.57;;
42598;SDS011;28225;42.714;23.860;2023-08-06T01:04:13;5.35;;;3.75;;
42598;SDS011;28225;42.714;23.860;2023-08-06T01:04:28;6.67;;;3.70;;
42598;SDS011;28225;42.714;23.860;2023-08-06T01:04:44;7.53;;;3.90;;
42598;SDS011;28225;42.714;23.860;2023-08-06T01:04:59;6.07;;;3.83;;
42598;SDS011;28225;42.714;23.860;2023-08-06T01:05:14;5.27;;;3.87;;
42598;SDS011;28225;42.714;23.860;2023-08-06T01:05:30;5.90;;;3.70;;
42598;SDS011;28225;42.714;23.860;2023-08-06T01:05:45;5.65;;;3.47;;
42598;SDS011;28225;42.714;23.860;2023-08-06T01:06:01;4.97;;;3.50;;
42598;SDS011;28225;42.714;23.860;2023-08-06T01:06:16;5.43;;;3.70;;
42598;SDS011;28225;42.714;23.860;2023-08-06T01:06:37;6.93;;;4.10;;
42598;SDS011;28225;42.714;23.860;2023-08-06T01:07:08;6.18;;;4.15;;
42598;SDS011;28225;42.714;23.860;2023-08-06T01:08:56;4.97;;;3.67;;
42598;SDS011;28225;42.714;23.860;2023-08-06T01:13:58;4.75;;;3.42;;
42598;SDS011;28225;42.714;23.860;2023-08-06T01:14:37;4.82;;;3.60;;
42598;SDS011;28225;42.714;23.860;2023-08-06T01:15:02;5.35;;;3.70;;
42598;SDS011;28225;42.714;23.860;2023-08-06T01:15:23;6.10;;;3.97;;
42598;SDS011;28225;42.714;23.860;2023-08-06T01:15:43;4.90;;;3.58;;
42598;SDS011;28225;42.714;23.860;2023-08-06T01:16:01;5.22;;;3.83;;
42598;SDS011;28225;42.714;23.860;2023-08-06T01:16:18;4.80;;;3.75;;
42598;SDS011;28225;42.714;23.860;2023-08-06T01:16:35;4.70;;;3.63;;
42598;SDS011;28225;42.714;23.860;2023-08-06T01:16:52;6.13;;;3.53;;
42598;SDS011;28225;42.714;23.860;2023-08-06T01:17:08;5.82;;;3.70;;
42598;SDS011;28225;42.714;23.860;2023-08-06T01:17:24;5.00;;;3.95;;
42598;SDS011;28225;42.714;23.860;2023-08-06T01:17:41;5.25;;;3.78;;
42598;SDS011;28225;42.714;23.860;2023-08-06T01:17:57;4.75;;;3.58;;
42598;SDS011;28225;42.714;23.860;2023-08-06T01:18:13;4.38;;;3.78;;
42598;SDS011;28225;42.714;23.860;2023-08-06T01:18:29;4.97;;;4.13;;
42598;SDS011;28225;42.714;23.860;2023-08-06T01:18:44;5.10;;;4.10;;
42598;SDS011;28225;42.714;23.860;2023-08-06T01:19:04;5.32;;;3.92;;
42598;SDS011;28225;42.714;23.860;2023-08-06T01:19:19;5.45;;;3.95;;
42598;SDS011;28225;42.714;23.860;2023-08-06T01:19:35;4.50;;;3.60;;
42598;SDS011;28225;42.714;23.860;2023-08-06T01:19:50;4.97;;;3.63;;
42598;SDS011;28225;42.714;23.860;2023-08-06T01:20:06;5.07;;;3.70;;
42598;SDS011;28225;42.714;23.860;2023-08-06T01:20:21;4.22;;;3.58;;
42598;SDS011;28225;42.714;23.860;2023-08-06T01:20:37;5.00;;;3.63;;
42598;SDS011;28225;42.714;23.860;2023-08-06T01:20:52;6.00;;;3.77;;
42598;SDS011;28225;42.714;23.860;2023-08-06T01:21:07;5.22;;;4.07;;
42598;SDS011;28225;42.714;23.860;2023-08-06T01:21:23;4.57;;;4.03;;
42598;SDS011;28225;42.714;23.860;2023-08-06T01:21:38;4.47;;;3.57;;
42598;SDS011;28225;42.714;23.860;2023-08-06T01:21:53;4.45;;;3.40;;
42598;SDS011;28225;42.714;23.860;2023-08-06T01:22:09;4.67;;;3.47;;
42598;SDS011;28225;42.714;23.860;2023-08-06T01:22:24;4.20;;;3.30;;
42598;SDS011;28225;42.714;23.860;2023-08-06T01:22:39;4.60;;;3.70;;
42598;SDS011;28225;42.714;23.860;2023-08-06T01:22:55;4.87;;;3.77;;
42598;SDS011;28225;42.714;23.860;2023-08-06T01:23:10;5.50;;;3.97;;
42598;SDS011;28225;42.714;23.860;2023-08-06T01:23:25;5.37;;;4.17;;
42598;SDS011;28225;42.714;23.860;2023-08-06T01:23:41;4.90;;;3.75;;
42598;SDS011;28225;42.714;23.860;2023-08-06T01:23:57;4.40;;;3.60;;
42598;SDS011;28225;42.714;23.860;2023-08-06T01:24:12;4.10;;;3.70;;
42598;SDS011;28225;42.714;23.860;2023-08-06T01:24:28;4.10;;;3.55;;
42598;SDS011;28225;42.714;23.860;2023-08-06T01:24:45;4.70;;;3.47;;
42598;SDS011;28225;42.714;23.860;2023-08-06T01:25:04;5.40;;;3.60;;
42598;SDS011;28225;42.714;23.860;2023-08-06T01:25:20;5.70;;;3.58;;
42598;SDS011;28225;42.714;23.860;2023-08-06T01:25:38;5.57;;;3.85;;
42598;SDS011;28225;42.714;23.860;2023-08-06T01:26:53;6.72;;;4.00;;
42598;SDS011;28225;42.714;23.860;2023-08-06T01:27:14;4.82;;;4.03;;
42598;SDS011;28225;42.714;23.860;2023-08-06T01:27:39;6.60;;;4.20;;
42598;SDS011;28225;42.714;23.860;2023-08-06T01:28:08;4.95;;;4.45;;
42598;SDS011;28225;42.714;23.860;2023-08-06T01:28:54;6.50;;;4.28;;
42598;SDS011;28225;42.714;23.860;2023-08-06T01:29:15;5.45;;;3.55;;
42598;SDS011;28225;42.714;23.860;2023-08-06T01:29:35;3.92;;;3.28;;
42598;SDS011;28225;42.714;23.860;2023-08-06T01:30:13;4.50;;;4.03;;
42598;SDS011;28225;42.714;23.860;2023-08-06T01:30:32;6.20;;;4.05;;
42598;SDS011;28225;42.714;23.860;2023-08-06T01:30:52;7.57;;;3.83;;
42598;SDS011;28225;42.714;23.860;2023-08-06T01:31:10;6.03;;;3.90;;
42598;SDS011;28225;42.714;23.860;2023-08-06T01:31:31;5.35;;;3.92;;
42598;SDS011;28225;42.714;23.860;2023-08-06T01:31:50;6.95;;;3.42;;
42598;SDS011;28225;42.714;23.860;2023-08-06T01:32:06;6.72;;;3.55;;
42598;SDS011;28225;42.714;23.860;2023-08-06T01:32:23;4.95;;;3.50;;
42598;SDS011;28225;42.714;23.860;2023-08-06T01:32:42;6.30;;;3.58;;
42598;SDS011;28225;42.714;23.860;2023-08-06T01:33:00;5.93;;;3.88;;
42598;SDS011;28225;42.714;23.860;2023-08-06T01:33:19;4.45;;;3.33;;
42598;SDS011;28225;42.714;23.860;2023-08-06T01:33:37;5.25;;;3.63;;
42598;SDS011;28225;42.714;23.860;2023-08-06T01:33:53;5.50;;;3.67;;
42598;SDS011;28225;42.714;23.860;2023-08-06T01:34:13;5.20;;;3.70;;
42598;SDS011;28225;42.714;23.860;2023-08-06T01:34:32;5.07;;;3.72;;
42598;SDS011;28225;42.714;23.860;2023-08-06T01:34:49;4.38;;;3.90;;
42598;SDS011;28225;42.714;23.860;2023-08-06T01:35:05;5.07;;;3.92;;
42598;SDS011;28225;42.714;23.860;2023-08-06T01:35:21;5.60;;;3.67;;
42598;SDS011;28225;42.714;23.860;2023-08-06T01:35:36;4.75;;;3.42;;
42598;SDS011;28225;42.714;23.860;2023-08-06T01:35:52;4.43;;;3.63;;
42598;SDS011;28225;42.714;23.860;2023-08-06T01:36:09;4.10;;;3.67;;
42598;SDS011;28225;42.714;23.860;2023-08-06T01:36:24;4.00;;;3.60;;
42598;SDS011;28225;42.714;23.860;2023-08-06T01:36:40;5.10;;;3.53;;
42598;SDS011;28225;42.714;23.860;2023-08-06T01:36:55;5.17;;;3.37;;
42598;SDS011;28225;42.714;23.860;2023-08-06T01:37:11;4.63;;;3.28;;
42598;SDS011;28225;42.714;23.860;2023-08-06T01:37:27;4.90;;;3.75;;
42598;SDS011;28225;42.714;23.860;2023-08-06T01:37:43;5.03;;;3.90;;
42598;SDS011;28225;42.714;23.860;2023-08-06T01:37:59;6.10;;;3.80;;
42598;SDS011;28225;42.714;23.860;2023-08-06T01:38:15;5.40;;;3.92;;
42598;SDS011;28225;42.714;23.860;2023-08-06T01:38:31;4.33;;;3.50;;
42598;SDS011;28225;42.714;23.860;2023-08-06T01:38:46;3.80;;;3.40;;
42598;SDS011;28225;42.714;23.860;2023-08-06T01:39:01;3.90;;;3.50;;
42598;SDS011;28225;42.714;23.860;2023-08-06T01:39:17;4.22;;;3.70;;
42598;SDS011;28225;42.714;23.860;2023-08-06T01:39:35;4.93;;;3.80;;
42598;SDS011;28225;42.714;23.860;2023-08-06T01:39:51;5.10;;;3.70;;
42598;SDS011;28225;42.714;23.860;2023-08-06T01:40:09;4.85;;;3.65;;
42598;SDS011;28225;42.714;23.860;2023-08-06T01:40:26;5.25;;;3.70;;
42598;SDS011;28225;42.714;23.860;2023-08-06T01:40:43;4.68;;;3.80;;
42598;SDS011;28225;42.714;23.860;2023-08-06T01:40:58;4.03;;;3.63;;
42598;SDS011;28225;42.714;23.860;2023-08-06T01:41:14;3.97;;;3.57;;
42598;SDS011;28225;42.714;23.860;2023-08-06T01:41:29;5.60;;;3.87;;
42598;SDS011;28225;42.714;23.860;2023-08-06T01:41:44;6.03;;;3.83;;
42598;SDS011;28225;42.714;23.860;2023-08-06T01:42:00;4.83;;;3.67;;
42598;SDS011;28225;42.714;23.860;2023-08-06T01:42:15;6.70;;;3.50;;
42598;SDS011;28225;42.714;23.860;2023-08-06T01:42:30;6.95;;;3.47;;
42598;SDS011;28225;42.714;23.860;2023-08-06T01:42:46;4.60;;;3.23;;
42598;SDS011;28225;42.714;23.860;2023-08-06T01:43:01;4.20;;;3.43;;
42598;SDS011;28225;42.714;23.860;2023-08-06T01:43:16;4.57;;;3.53;;